Point Rock, New York
Current Conditions -  °F | °C
As of 3:24 PM on Wednesday 26 Nov 2014 (Local Time) from KRME Reporting Station
Light Snow Light Snow  
Wind Chill: 25°   Ceiling: 1500
Heat Index: 31°   Visibility: 1mi
Dew Point: 30°   Wind: 6mph
Humidity: 96%   Direction: 330°NNW
Pressure: 30.08"   Gusts: NA
Location:  43.3949°N, 75.6118°W
Report Text: KRME 262024Z 33005KT 1SM -SN BR VV015 M01/M01 A3008 RMK AO2 P0001 T10061011 RVRNO
Loading
Personal Weather Stations






























Interactive Weather Map New forecast layout! Learn more

10-Day Weather Forecast

Advertisements
Track Severe Weather on mobile